sensor_id;sensor_type;location;lat;lon;timestamp;P1;durP1;ratioP1;P2;durP2;ratioP2
72427;SDS011;60419;48.880;18.036;2023-07-09T00:00:06;5.63;;;3.80;;
72427;SDS011;60419;48.880;18.036;2023-07-09T00:02:59;8.65;;;3.92;;
72427;SDS011;60419;48.880;18.036;2023-07-09T00:05:45;11.73;;;4.07;;
72427;SDS011;60419;48.880;18.036;2023-07-09T00:08:33;8.07;;;4.05;;
72427;SDS011;60419;48.880;18.036;2023-07-09T00:11:18;6.90;;;4.22;;
72427;SDS011;60419;48.880;18.036;2023-07-09T00:14:05;7.60;;;4.18;;
72427;SDS011;60419;48.880;18.036;2023-07-09T00:16:50;6.20;;;3.97;;
72427;SDS011;60419;48.880;18.036;2023-07-09T00:19:36;10.65;;;4.30;;
72427;SDS011;60419;48.880;18.036;2023-07-09T00:22:21;5.80;;;4.18;;
72427;SDS011;60419;48.880;18.036;2023-07-09T00:25:10;8.43;;;4.15;;
72427;SDS011;60419;48.880;18.036;2023-07-09T00:27:58;7.60;;;4.25;;
72427;SDS011;60419;48.880;18.036;2023-07-09T00:30:44;7.32;;;4.50;;
72427;SDS011;60419;48.880;18.036;2023-07-09T00:33:30;7.57;;;4.45;;
72427;SDS011;60419;48.880;18.036;2023-07-09T00:36:18;6.88;;;4.35;;
72427;SDS011;60419;48.880;18.036;2023-07-09T00:39:21;8.35;;;4.47;;
72427;SDS011;60419;48.880;18.036;2023-07-09T00:42:17;6.90;;;4.10;;
72427;SDS011;60419;48.880;18.036;2023-07-09T00:45:04;6.65;;;4.47;;
72427;SDS011;60419;48.880;18.036;2023-07-09T00:48:04;8.05;;;4.30;;
72427;SDS011;60419;48.880;18.036;2023-07-09T00:50:52;7.07;;;4.47;;
72427;SDS011;60419;48.880;18.036;2023-07-09T00:53:38;9.02;;;4.43;;
72427;SDS011;60419;48.880;18.036;2023-07-09T00:56:32;9.43;;;5.32;;
72427;SDS011;60419;48.880;18.036;2023-07-09T00:59:24;9.27;;;4.75;;
72427;SDS011;60419;48.880;18.036;2023-07-09T01:02:13;6.57;;;4.20;;
72427;SDS011;60419;48.880;18.036;2023-07-09T01:04:59;7.97;;;4.63;;
72427;SDS011;60419;48.880;18.036;2023-07-09T01:07:47;7.18;;;4.65;;
72427;SDS011;60419;48.880;18.036;2023-07-09T01:10:34;10.23;;;5.25;;
72427;SDS011;60419;48.880;18.036;2023-07-09T01:13:20;7.00;;;4.38;;
72427;SDS011;60419;48.880;18.036;2023-07-09T01:16:05;7.57;;;4.40;;
72427;SDS011;60419;48.880;18.036;2023-07-09T01:18:51;6.40;;;4.75;;
72427;SDS011;60419;48.880;18.036;2023-07-09T01:21:37;7.57;;;4.65;;
72427;SDS011;60419;48.880;18.036;2023-07-09T01:27:46;9.00;;;4.50;;
72427;SDS011;60419;48.880;18.036;2023-07-09T01:30:35;6.68;;;4.68;;
72427;SDS011;60419;48.880;18.036;2023-07-09T01:33:22;8.83;;;4.67;;
72427;SDS011;60419;48.880;18.036;2023-07-09T01:36:08;7.63;;;4.68;;
72427;SDS011;60419;48.880;18.036;2023-07-09T01:38:56;7.07;;;4.65;;
72427;SDS011;60419;48.880;18.036;2023-07-09T01:41:41;7.65;;;4.63;;
72427;SDS011;60419;48.880;18.036;2023-07-09T01:44:27;9.70;;;5.00;;
72427;SDS011;60419;48.880;18.036;2023-07-09T01:47:14;7.07;;;4.57;;
72427;SDS011;60419;48.880;18.036;2023-07-09T01:50:00;7.15;;;4.50;;
72427;SDS011;60419;48.880;18.036;2023-07-09T01:52:45;6.15;;;4.35;;
72427;SDS011;60419;48.880;18.036;2023-07-09T01:55:34;7.45;;;4.88;;
72427;SDS011;60419;48.880;18.036;2023-07-09T01:58:20;7.75;;;4.80;;
72427;SDS011;60419;48.880;18.036;2023-07-09T02:01:09;7.55;;;4.60;;
72427;SDS011;60419;48.880;18.036;2023-07-09T02:03:55;9.15;;;5.43;;
72427;SDS011;60419;48.880;18.036;2023-07-09T02:06:41;8.02;;;5.45;;
72427;SDS011;60419;48.880;18.036;2023-07-09T02:09:26;7.15;;;5.30;;
72427;SDS011;60419;48.880;18.036;2023-07-09T02:12:12;7.93;;;5.03;;
72427;SDS011;60419;48.880;18.036;2023-07-09T02:14:58;7.28;;;4.90;;
72427;SDS011;60419;48.880;18.036;2023-07-09T02:17:44;6.15;;;4.00;;
72427;SDS011;60419;48.880;18.036;2023-07-09T02:20:30;6.38;;;4.25;;
72427;SDS011;60419;48.880;18.036;2023-07-09T02:23:15;8.52;;;4.30;;
72427;SDS011;60419;48.880;18.036;2023-07-09T02:26:01;6.38;;;3.72;;
72427;SDS011;60419;48.880;18.036;2023-07-09T02:28:46;8.93;;;4.40;;
72427;SDS011;60419;48.880;18.036;2023-07-09T02:31:31;6.75;;;4.15;;
72427;SDS011;60419;48.880;18.036;2023-07-09T02:34:18;6.65;;;3.88;;
72427;SDS011;60419;48.880;18.036;2023-07-09T02:37:04;5.82;;;3.90;;
72427;SDS011;60419;48.880;18.036;2023-07-09T02:39:50;6.88;;;4.07;;
72427;SDS011;60419;48.880;18.036;2023-07-09T02:42:35;5.82;;;3.80;;
72427;SDS011;60419;48.880;18.036;2023-07-09T02:45:21;8.60;;;3.92;;
72427;SDS011;60419;48.880;18.036;2023-07-09T02:48:06;8.40;;;3.78;;
72427;SDS011;60419;48.880;18.036;2023-07-09T02:50:52;8.80;;;3.85;;
72427;SDS011;60419;48.880;18.036;2023-07-09T02:53:37;6.70;;;4.05;;
72427;SDS011;60419;48.880;18.036;2023-07-09T02:56:23;6.65;;;4.13;;
72427;SDS011;60419;48.880;18.036;2023-07-09T02:59:09;7.60;;;3.60;;
72427;SDS011;60419;48.880;18.036;2023-07-09T03:01:56;6.43;;;3.83;;
72427;SDS011;60419;48.880;18.036;2023-07-09T03:04:42;7.38;;;3.50;;
72427;SDS011;60419;48.880;18.036;2023-07-09T03:07:27;7.03;;;4.10;;
72427;SDS011;60419;48.880;18.036;2023-07-09T03:10:13;6.75;;;3.55;;
72427;SDS011;60419;48.880;18.036;2023-07-09T03:12:58;6.47;;;4.10;;
72427;SDS011;60419;48.880;18.036;2023-07-09T03:15:44;6.38;;;4.18;;
72427;SDS011;60419;48.880;18.036;2023-07-09T03:18:39;8.70;;;4.20;;
72427;SDS011;60419;48.880;18.036;2023-07-09T03:21:25;6.85;;;4.35;;
72427;SDS011;60419;48.880;18.036;2023-07-09T03:24:12;8.50;;;4.57;;
72427;SDS011;60419;48.880;18.036;2023-07-09T03:27:00;6.72;;;4.00;;
72427;SDS011;60419;48.880;18.036;2023-07-09T03:29:45;6.63;;;4.18;;
72427;SDS011;60419;48.880;18.036;2023-07-09T03:32:31;6.13;;;4.03;;
72427;SDS011;60419;48.880;18.036;2023-07-09T03:35:16;7.38;;;4.30;;
72427;SDS011;60419;48.880;18.036;2023-07-09T03:38:01;6.50;;;4.28;;
72427;SDS011;60419;48.880;18.036;2023-07-09T03:40:51;6.93;;;4.00;;
72427;SDS011;60419;48.880;18.036;2023-07-09T03:43:39;5.70;;;4.10;;
72427;SDS011;60419;48.880;18.036;2023-07-09T03:46:25;6.00;;;4.15;;
72427;SDS011;60419;48.880;18.036;2023-07-09T03:49:10;7.32;;;4.35;;
72427;SDS011;60419;48.880;18.036;2023-07-09T03:51:56;8.35;;;3.78;;
72427;SDS011;60419;48.880;18.036;2023-07-09T03:54:41;6.43;;;4.07;;
72427;SDS011;60419;48.880;18.036;2023-07-09T03:57:27;6.82;;;4.28;;
72427;SDS011;60419;48.880;18.036;2023-07-09T04:00:13;10.20;;;4.53;;
72427;SDS011;60419;48.880;18.036;2023-07-09T04:02:59;6.68;;;4.43;;
72427;SDS011;60419;48.880;18.036;2023-07-09T04:05:44;6.82;;;3.88;;
72427;SDS011;60419;48.880;18.036;2023-07-09T04:08:30;7.65;;;4.30;;
72427;SDS011;60419;48.880;18.036;2023-07-09T04:11:15;8.40;;;4.50;;
72427;SDS011;60419;48.880;18.036;2023-07-09T04:14:00;6.22;;;3.97;;
72427;SDS011;60419;48.880;18.036;2023-07-09T04:16:46;7.15;;;3.88;;
72427;SDS011;60419;48.880;18.036;2023-07-09T04:19:31;6.45;;;4.18;;
72427;SDS011;60419;48.880;18.036;2023-07-09T04:22:17;7.18;;;4.13;;
72427;SDS011;60419;48.880;18.036;2023-07-09T04:25:02;5.45;;;3.80;;
72427;SDS011;60419;48.880;18.036;2023-07-09T04:27:50;9.55;;;5.10;;
72427;SDS011;60419;48.880;18.036;2023-07-09T04:30:35;6.00;;;4.25;;
72427;SDS011;60419;48.880;18.036;2023-07-09T04:33:20;8.88;;;4.30;;
72427;SDS011;60419;48.880;18.036;2023-07-09T04:36:06;8.27;;;4.75;;
72427;SDS011;60419;48.880;18.036;2023-07-09T04:38:54;8.25;;;4.00;;
72427;SDS011;60419;48.880;18.036;2023-07-09T04:41:39;6.93;;;4.00;;
72427;SDS011;60419;48.880;18.036;2023-07-09T04:44:24;7.15;;;3.90;;
72427;SDS011;60419;48.880;18.036;2023-07-09T04:47:10;8.07;;;4.15;;
72427;SDS011;60419;48.880;18.036;2023-07-09T04:49:57;6.35;;;4.25;;
72427;SDS011;60419;48.880;18.036;2023-07-09T04:52:42;5.53;;;4.03;;
72427;SDS011;60419;48.880;18.036;2023-07-09T04:55:27;7.45;;;4.75;;
72427;SDS011;60419;48.880;18.036;2023-07-09T04:58:13;6.78;;;4.60;;
72427;SDS011;60419;48.880;18.036;2023-07-09T05:00:59;9.32;;;4.93;;
72427;SDS011;60419;48.880;18.036;2023-07-09T05:03:45;7.65;;;4.50;;
72427;SDS011;60419;48.880;18.036;2023-07-09T05:06:30;8.82;;;4.18;;
72427;SDS011;60419;48.880;18.036;2023-07-09T05:09:15;7.72;;;4.43;;
72427;SDS011;60419;48.880;18.036;2023-07-09T05:12:01;6.32;;;3.92;;
72427;SDS011;60419;48.880;18.036;2023-07-09T05:14:47;7.20;;;4.40;;
72427;SDS011;60419;48.880;18.036;2023-07-09T05:17:32;6.85;;;3.78;;
72427;SDS011;60419;48.880;18.036;2023-07-09T05:20:18;9.43;;;4.25;;
72427;SDS011;60419;48.880;18.036;2023-07-09T05:23:03;8.88;;;4.28;;
72427;SDS011;60419;48.880;18.036;2023-07-09T05:25:49;6.93;;;3.58;;
72427;SDS011;60419;48.880;18.036;2023-07-09T05:28:34;7.68;;;4.43;;
72427;SDS011;60419;48.880;18.036;2023-07-09T05:31:19;7.53;;;3.95;;
72427;SDS011;60419;48.880;18.036;2023-07-09T05:34:05;9.48;;;4.22;;
72427;SDS011;60419;48.880;18.036;2023-07-09T05:36:50;7.90;;;4.25;;
72427;SDS011;60419;48.880;18.036;2023-07-09T05:39:35;16.85;;;5.78;;
72427;SDS011;60419;48.880;18.036;2023-07-09T05:42:21;22.48;;;7.03;;
72427;SDS011;60419;48.880;18.036;2023-07-09T05:45:07;15.00;;;5.15;;
72427;SDS011;60419;48.880;18.036;2023-07-09T05:47:53;18.90;;;5.90;;
72427;SDS011;60419;48.880;18.036;2023-07-09T05:50:38;31.48;;;8.50;;
72427;SDS011;60419;48.880;18.036;2023-07-09T05:53:23;18.65;;;7.07;;
72427;SDS011;60419;48.880;18.036;2023-07-09T05:56:10;20.90;;;6.38;;
72427;SDS011;60419;48.880;18.036;2023-07-09T05:58:55;20.73;;;5.70;;
72427;SDS011;60419;48.880;18.036;2023-07-09T06:01:41;17.80;;;5.68;;
72427;SDS011;60419;48.880;18.036;2023-07-09T06:04:27;14.73;;;5.32;;
72427;SDS011;60419;48.880;18.036;2023-07-09T06:07:12;12.52;;;4.50;;
72427;SDS011;60419;48.880;18.036;2023-07-09T06:10:00;12.45;;;4.93;;
72427;SDS011;60419;48.880;18.036;2023-07-09T06:12:46;8.60;;;4.47;;
72427;SDS011;60419;48.880;18.036;2023-07-09T06:15:31;9.55;;;3.88;;
72427;SDS011;60419;48.880;18.036;2023-07-09T06:18:16;11.27;;;4.50;;
72427;SDS011;60419;48.880;18.036;2023-07-09T06:21:02;10.90;;;4.30;;
72427;SDS011;60419;48.880;18.036;2023-07-09T06:23:48;8.52;;;4.32;;
72427;SDS011;60419;48.880;18.036;2023-07-09T06:26:33;8.80;;;4.20;;
72427;SDS011;60419;48.880;18.036;2023-07-09T06:29:19;14.85;;;4.88;;
72427;SDS011;60419;48.880;18.036;2023-07-09T06:32:04;12.85;;;4.28;;
72427;SDS011;60419;48.880;18.036;2023-07-09T06:34:50;11.20;;;4.50;;
72427;SDS011;60419;48.880;18.036;2023-07-09T06:37:35;10.82;;;4.47;;
72427;SDS011;60419;48.880;18.036;2023-07-09T06:40:21;18.23;;;5.47;;
72427;SDS011;60419;48.880;18.036;2023-07-09T06:43:06;13.13;;;4.68;;
72427;SDS011;60419;48.880;18.036;2023-07-09T06:45:55;11.43;;;4.10;;
72427;SDS011;60419;48.880;18.036;2023-07-09T06:48:43;9.90;;;4.80;;
72427;SDS011;60419;48.880;18.036;2023-07-09T06:51:28;13.23;;;5.00;;
72427;SDS011;60419;48.880;18.036;2023-07-09T06:54:14;9.90;;;4.28;;
72427;SDS011;60419;48.880;18.036;2023-07-09T06:57:00;11.40;;;4.95;;
72427;SDS011;60419;48.880;18.036;2023-07-09T06:59:45;10.82;;;4.88;;
72427;SDS011;60419;48.880;18.036;2023-07-09T07:02:31;12.93;;;4.85;;
72427;SDS011;60419;48.880;18.036;2023-07-09T07:05:16;14.20;;;5.35;;
72427;SDS011;60419;48.880;18.036;2023-07-09T07:08:03;14.05;;;4.55;;
72427;SDS011;60419;48.880;18.036;2023-07-09T07:10:49;11.85;;;4.55;;
72427;SDS011;60419;48.880;18.036;2023-07-09T07:13:36;10.07;;;4.32;;
72427;SDS011;60419;48.880;18.036;2023-07-09T07:16:23;10.70;;;4.18;;
72427;SDS011;60419;48.880;18.036;2023-07-09T07:19:08;12.95;;;5.18;;
72427;SDS011;60419;48.880;18.036;2023-07-09T07:21:54;9.75;;;4.55;;
72427;SDS011;60419;48.880;18.036;2023-07-09T07:24:40;10.57;;;4.60;;
72427;SDS011;60419;48.880;18.036;2023-07-09T07:27:25;11.30;;;4.85;;
72427;SDS011;60419;48.880;18.036;2023-07-09T07:30:11;12.73;;;4.78;;
72427;SDS011;60419;48.880;18.036;2023-07-09T07:32:57;13.43;;;3.65;;
72427;SDS011;60419;48.880;18.036;2023-07-09T07:35:43;9.52;;;4.25;;
72427;SDS011;60419;48.880;18.036;2023-07-09T07:38:28;9.82;;;4.13;;
72427;SDS011;60419;48.880;18.036;2023-07-09T07:41:14;8.45;;;4.00;;
72427;SDS011;60419;48.880;18.036;2023-07-09T07:43:59;10.20;;;4.10;;
72427;SDS011;60419;48.880;18.036;2023-07-09T07:46:44;10.48;;;4.18;;
72427;SDS011;60419;48.880;18.036;2023-07-09T07:49:30;8.30;;;4.15;;
72427;SDS011;60419;48.880;18.036;2023-07-09T07:52:15;10.18;;;4.28;;
72427;SDS011;60419;48.880;18.036;2023-07-09T07:55:01;10.15;;;4.15;;
72427;SDS011;60419;48.880;18.036;2023-07-09T07:57:47;10.45;;;4.30;;
72427;SDS011;60419;48.880;18.036;2023-07-09T08:00:33;7.88;;;3.45;;
72427;SDS011;60419;48.880;18.036;2023-07-09T08:03:18;8.02;;;3.70;;
72427;SDS011;60419;48.880;18.036;2023-07-09T08:06:03;7.38;;;3.60;;
72427;SDS011;60419;48.880;18.036;2023-07-09T08:08:49;7.50;;;3.55;;
72427;SDS011;60419;48.880;18.036;2023-07-09T08:11:34;10.88;;;3.95;;
72427;SDS011;60419;48.880;18.036;2023-07-09T08:14:20;8.45;;;3.70;;
72427;SDS011;60419;48.880;18.036;2023-07-09T08:17:06;9.40;;;3.72;;
72427;SDS011;60419;48.880;18.036;2023-07-09T08:19:52;6.97;;;3.70;;
72427;SDS011;60419;48.880;18.036;2023-07-09T08:22:39;7.07;;;3.55;;
72427;SDS011;60419;48.880;18.036;2023-07-09T08:25:24;9.23;;;3.60;;
72427;SDS011;60419;48.880;18.036;2023-07-09T08:28:10;6.13;;;3.10;;
72427;SDS011;60419;48.880;18.036;2023-07-09T08:30:55;6.13;;;2.88;;
72427;SDS011;60419;48.880;18.036;2023-07-09T08:33:41;6.60;;;2.80;;
72427;SDS011;60419;48.880;18.036;2023-07-09T08:36:27;6.40;;;3.08;;
72427;SDS011;60419;48.880;18.036;2023-07-09T08:39:12;7.32;;;3.30;;
72427;SDS011;60419;48.880;18.036;2023-07-09T08:48:03;8.05;;;3.17;;
72427;SDS011;60419;48.880;18.036;2023-07-09T08:51:00;6.05;;;3.20;;
72427;SDS011;60419;48.880;18.036;2023-07-09T08:56:41;5.80;;;2.97;;
72427;SDS011;60419;48.880;18.036;2023-07-09T08:59:28;4.72;;;2.80;;
72427;SDS011;60419;48.880;18.036;2023-07-09T09:02:31;7.28;;;3.10;;
72427;SDS011;60419;48.880;18.036;2023-07-09T09:05:21;6.90;;;2.90;;
72427;SDS011;60419;48.880;18.036;2023-07-09T09:08:15;6.75;;;2.83;;
72427;SDS011;60419;48.880;18.036;2023-07-09T09:11:20;5.88;;;2.60;;
72427;SDS011;60419;48.880;18.036;2023-07-09T09:14:24;5.70;;;2.90;;
72427;SDS011;60419;48.880;18.036;2023-07-09T09:17:16;4.47;;;2.50;;
72427;SDS011;60419;48.880;18.036;2023-07-09T09:20:36;5.93;;;2.65;;
72427;SDS011;60419;48.880;18.036;2023-07-09T09:23:15;6.72;;;2.95;;
72427;SDS011;60419;48.880;18.036;2023-07-09T09:26:00;5.22;;;2.78;;
72427;SDS011;60419;48.880;18.036;2023-07-09T09:28:52;4.97;;;2.40;;
72427;SDS011;60419;48.880;18.036;2023-07-09T09:31:37;6.18;;;3.05;;
72427;SDS011;60419;48.880;18.036;2023-07-09T09:34:28;6.88;;;2.53;;
72427;SDS011;60419;48.880;18.036;2023-07-09T09:37:15;4.75;;;2.83;;
72427;SDS011;60419;48.880;18.036;2023-07-09T09:40:09;6.45;;;2.92;;
72427;SDS011;60419;48.880;18.036;2023-07-09T09:42:58;9.52;;;2.83;;
72427;SDS011;60419;48.880;18.036;2023-07-09T09:45:46;5.03;;;2.80;;
72427;SDS011;60419;48.880;18.036;2023-07-09T09:48:33;4.47;;;2.67;;
72427;SDS011;60419;48.880;18.036;2023-07-09T09:51:18;6.45;;;2.70;;
72427;SDS011;60419;48.880;18.036;2023-07-09T09:54:06;4.70;;;2.33;;
72427;SDS011;60419;48.880;18.036;2023-07-09T09:57:00;6.63;;;2.70;;
72427;SDS011;60419;48.880;18.036;2023-07-09T09:59:46;4.55;;;2.38;;
72427;SDS011;60419;48.880;18.036;2023-07-09T10:02:38;4.90;;;2.58;;
72427;SDS011;60419;48.880;18.036;2023-07-09T10:05:29;4.03;;;2.47;;
72427;SDS011;60419;48.880;18.036;2023-07-09T10:17:37;6.35;;;2.80;;
72427;SDS011;60419;48.880;18.036;2023-07-09T10:20:32;4.60;;;2.40;;
72427;SDS011;60419;48.880;18.036;2023-07-09T10:23:29;4.80;;;2.15;;
72427;SDS011;60419;48.880;18.036;2023-07-09T10:26:27;3.78;;;2.28;;
72427;SDS011;60419;48.880;18.036;2023-07-09T10:29:27;3.47;;;2.15;;
72427;SDS011;60419;48.880;18.036;2023-07-09T10:41:19;5.75;;;2.50;;
72427;SDS011;60419;48.880;18.036;2023-07-09T10:44:28;3.90;;;2.20;;
72427;SDS011;60419;48.880;18.036;2023-07-09T10:47:49;5.05;;;2.03;;
72427;SDS011;60419;48.880;18.036;2023-07-09T10:50:34;3.45;;;2.10;;
72427;SDS011;60419;48.880;18.036;2023-07-09T10:53:36;6.07;;;2.42;;
72427;SDS011;60419;48.880;18.036;2023-07-09T10:56:28;3.75;;;2.30;;
72427;SDS011;60419;48.880;18.036;2023-07-09T11:04:54;5.93;;;2.50;;
72427;SDS011;60419;48.880;18.036;2023-07-09T11:07:52;4.30;;;2.40;;
72427;SDS011;60419;48.880;18.036;2023-07-09T11:10:55;3.85;;;2.28;;
72427;SDS011;60419;48.880;18.036;2023-07-09T11:13:45;4.60;;;2.30;;
72427;SDS011;60419;48.880;18.036;2023-07-09T11:16:38;4.40;;;2.42;;
72427;SDS011;60419;48.880;18.036;2023-07-09T11:19:27;4.43;;;2.45;;
72427;SDS011;60419;48.880;18.036;2023-07-09T11:22:36;5.35;;;2.45;;
72427;SDS011;60419;48.880;18.036;2023-07-09T11:28:15;4.82;;;2.80;;
72427;SDS011;60419;48.880;18.036;2023-07-09T11:34:16;3.65;;;2.15;;
72427;SDS011;60419;48.880;18.036;2023-07-09T11:37:00;6.53;;;2.08;;
72427;SDS011;60419;48.880;18.036;2023-07-09T11:39:47;4.57;;;2.30;;
72427;SDS011;60419;48.880;18.036;2023-07-09T11:42:34;4.20;;;2.50;;
72427;SDS011;60419;48.880;18.036;2023-07-09T11:45:31;4.32;;;2.35;;
72427;SDS011;60419;48.880;18.036;2023-07-09T11:48:27;3.75;;;2.33;;
72427;SDS011;60419;48.880;18.036;2023-07-09T11:51:23;5.97;;;2.33;;
72427;SDS011;60419;48.880;18.036;2023-07-09T11:54:19;3.53;;;2.10;;
72427;SDS011;60419;48.880;18.036;2023-07-09T11:57:10;3.72;;;2.35;;
72427;SDS011;60419;48.880;18.036;2023-07-09T11:59:59;6.45;;;2.85;;
72427;SDS011;60419;48.880;18.036;2023-07-09T12:02:45;3.90;;;2.50;;
72427;SDS011;60419;48.880;18.036;2023-07-09T12:05:31;4.20;;;2.60;;
72427;SDS011;60419;48.880;18.036;2023-07-09T12:08:16;4.88;;;2.15;;
72427;SDS011;60419;48.880;18.036;2023-07-09T12:11:03;4.70;;;2.40;;
72427;SDS011;60419;48.880;18.036;2023-07-09T12:13:49;4.95;;;2.42;;
72427;SDS011;60419;48.880;18.036;2023-07-09T12:16:38;4.35;;;2.80;;
72427;SDS011;60419;48.880;18.036;2023-07-09T12:19:28;5.72;;;2.53;;
72427;SDS011;60419;48.880;18.036;2023-07-09T12:22:20;3.63;;;2.10;;
72427;SDS011;60419;48.880;18.036;2023-07-09T12:25:10;3.80;;;2.60;;
72427;SDS011;60419;48.880;18.036;2023-07-09T12:28:04;5.75;;;2.63;;
72427;SDS011;60419;48.880;18.036;2023-07-09T12:30:51;3.88;;;2.28;;
72427;SDS011;60419;48.880;18.036;2023-07-09T12:33:37;5.60;;;2.55;;
72427;SDS011;60419;48.880;18.036;2023-07-09T12:36:23;3.70;;;2.47;;
72427;SDS011;60419;48.880;18.036;2023-07-09T12:39:10;5.78;;;2.45;;
72427;SDS011;60419;48.880;18.036;2023-07-09T12:42:01;4.20;;;2.28;;
72427;SDS011;60419;48.880;18.036;2023-07-09T12:44:47;4.07;;;2.13;;
72427;SDS011;60419;48.880;18.036;2023-07-09T12:47:33;3.83;;;2.28;;
72427;SDS011;60419;48.880;18.036;2023-07-09T12:50:30;3.75;;;2.40;;
72427;SDS011;60419;48.880;18.036;2023-07-09T12:53:18;4.28;;;2.40;;
72427;SDS011;60419;48.880;18.036;2023-07-09T12:56:10;7.18;;;2.47;;
72427;SDS011;60419;48.880;18.036;2023-07-09T12:58:58;4.85;;;2.65;;
72427;SDS011;60419;48.880;18.036;2023-07-09T13:01:47;4.20;;;2.20;;
72427;SDS011;60419;48.880;18.036;2023-07-09T13:04:39;4.15;;;2.40;;
72427;SDS011;60419;48.880;18.036;2023-07-09T13:10:22;8.03;;;2.30;;
72427;SDS011;60419;48.880;18.036;2023-07-09T13:13:12;4.25;;;2.45;;
72427;SDS011;60419;48.880;18.036;2023-07-09T13:16:00;4.68;;;2.50;;
72427;SDS011;60419;48.880;18.036;2023-07-09T13:18:47;3.30;;;2.10;;
72427;SDS011;60419;48.880;18.036;2023-07-09T13:21:32;4.18;;;2.58;;
72427;SDS011;60419;48.880;18.036;2023-07-09T13:24:22;4.15;;;2.45;;
72427;SDS011;60419;48.880;18.036;2023-07-09T13:27:13;4.68;;;2.40;;
72427;SDS011;60419;48.880;18.036;2023-07-09T13:32:45;4.47;;;2.47;;
72427;SDS011;60419;48.880;18.036;2023-07-09T13:35:33;4.90;;;2.38;;
72427;SDS011;60419;48.880;18.036;2023-07-09T13:38:19;4.18;;;2.50;;
72427;SDS011;60419;48.880;18.036;2023-07-09T13:41:10;4.40;;;2.53;;
72427;SDS011;60419;48.880;18.036;2023-07-09T13:44:01;4.05;;;2.25;;
72427;SDS011;60419;48.880;18.036;2023-07-09T13:46:46;3.83;;;2.50;;
72427;SDS011;60419;48.880;18.036;2023-07-09T13:49:32;4.95;;;2.72;;
72427;SDS011;60419;48.880;18.036;2023-07-09T13:52:19;4.43;;;2.60;;
72427;SDS011;60419;48.880;18.036;2023-07-09T13:55:09;3.95;;;2.55;;
72427;SDS011;60419;48.880;18.036;2023-07-09T13:58:11;3.72;;;2.42;;
72427;SDS011;60419;48.880;18.036;2023-07-09T14:00:59;3.65;;;2.33;;
72427;SDS011;60419;48.880;18.036;2023-07-09T14:03:55;3.53;;;2.10;;
72427;SDS011;60419;48.880;18.036;2023-07-09T14:06:45;5.63;;;2.55;;
72427;SDS011;60419;48.880;18.036;2023-07-09T14:09:31;3.55;;;2.25;;
72427;SDS011;60419;48.880;18.036;2023-07-09T14:12:17;5.28;;;2.00;;
72427;SDS011;60419;48.880;18.036;2023-07-09T14:15:05;3.88;;;2.30;;
72427;SDS011;60419;48.880;18.036;2023-07-09T14:17:57;3.33;;;1.95;;
72427;SDS011;60419;48.880;18.036;2023-07-09T14:20:43;4.28;;;2.10;;
72427;SDS011;60419;48.880;18.036;2023-07-09T14:23:29;5.22;;;2.13;;
72427;SDS011;60419;48.880;18.036;2023-07-09T14:26:14;4.47;;;2.55;;
72427;SDS011;60419;48.880;18.036;2023-07-09T14:29:00;3.90;;;2.30;;
72427;SDS011;60419;48.880;18.036;2023-07-09T14:31:45;3.45;;;1.95;;
72427;SDS011;60419;48.880;18.036;2023-07-09T14:34:32;4.07;;;2.47;;
72427;SDS011;60419;48.880;18.036;2023-07-09T14:37:18;3.95;;;2.00;;
72427;SDS011;60419;48.880;18.036;2023-07-09T14:40:03;3.75;;;2.38;;
72427;SDS011;60419;48.880;18.036;2023-07-09T14:42:50;3.58;;;2.15;;
72427;SDS011;60419;48.880;18.036;2023-07-09T14:45:35;4.55;;;2.35;;
72427;SDS011;60419;48.880;18.036;2023-07-09T14:48:22;4.07;;;1.90;;
72427;SDS011;60419;48.880;18.036;2023-07-09T14:51:12;4.30;;;2.40;;
72427;SDS011;60419;48.880;18.036;2023-07-09T14:54:00;4.22;;;2.38;;
72427;SDS011;60419;48.880;18.036;2023-07-09T14:56:46;4.35;;;2.10;;
72427;SDS011;60419;48.880;18.036;2023-07-09T14:59:32;3.83;;;2.00;;
72427;SDS011;60419;48.880;18.036;2023-07-09T15:05:16;3.03;;;2.03;;
72427;SDS011;60419;48.880;18.036;2023-07-09T15:08:15;3.90;;;2.03;;
72427;SDS011;60419;48.880;18.036;2023-07-09T15:11:07;5.15;;;2.20;;
72427;SDS011;60419;48.880;18.036;2023-07-09T15:13:54;3.78;;;2.03;;
72427;SDS011;60419;48.880;18.036;2023-07-09T15:16:39;4.13;;;2.28;;
72427;SDS011;60419;48.880;18.036;2023-07-09T15:19:25;3.55;;;2.25;;
72427;SDS011;60419;48.880;18.036;2023-07-09T15:22:19;4.40;;;2.10;;
72427;SDS011;60419;48.880;18.036;2023-07-09T15:25:16;3.00;;;2.05;;
72427;SDS011;60419;48.880;18.036;2023-07-09T15:28:04;5.05;;;2.35;;
72427;SDS011;60419;48.880;18.036;2023-07-09T15:30:50;3.13;;;1.98;;
72427;SDS011;60419;48.880;18.036;2023-07-09T15:33:36;3.63;;;2.03;;
72427;SDS011;60419;48.880;18.036;2023-07-09T15:36:21;3.42;;;2.20;;
72427;SDS011;60419;48.880;18.036;2023-07-09T15:39:08;3.30;;;2.03;;
72427;SDS011;60419;48.880;18.036;2023-07-09T15:41:54;3.45;;;2.10;;
72427;SDS011;60419;48.880;18.036;2023-07-09T15:44:40;4.78;;;2.25;;
72427;SDS011;60419;48.880;18.036;2023-07-09T15:47:26;3.75;;;2.30;;
72427;SDS011;60419;48.880;18.036;2023-07-09T15:50:14;3.47;;;2.20;;
72427;SDS011;60419;48.880;18.036;2023-07-09T15:53:07;4.05;;;2.17;;
72427;SDS011;60419;48.880;18.036;2023-07-09T15:55:59;3.67;;;2.40;;
72427;SDS011;60419;48.880;18.036;2023-07-09T15:58:46;3.60;;;2.30;;
72427;SDS011;60419;48.880;18.036;2023-07-09T16:01:31;4.38;;;2.53;;
72427;SDS011;60419;48.880;18.036;2023-07-09T16:04:17;4.82;;;2.72;;
72427;SDS011;60419;48.880;18.036;2023-07-09T16:07:03;3.45;;;2.10;;
72427;SDS011;60419;48.880;18.036;2023-07-09T16:09:48;4.38;;;2.40;;
72427;SDS011;60419;48.880;18.036;2023-07-09T16:12:34;3.97;;;2.22;;
72427;SDS011;60419;48.880;18.036;2023-07-09T16:15:20;3.85;;;2.47;;
72427;SDS011;60419;48.880;18.036;2023-07-09T16:18:08;3.83;;;2.20;;
72427;SDS011;60419;48.880;18.036;2023-07-09T16:20:56;4.90;;;2.50;;
72427;SDS011;60419;48.880;18.036;2023-07-09T16:23:42;4.30;;;2.53;;
72427;SDS011;60419;48.880;18.036;2023-07-09T16:26:27;3.70;;;2.38;;
72427;SDS011;60419;48.880;18.036;2023-07-09T16:29:18;4.53;;;2.50;;
72427;SDS011;60419;48.880;18.036;2023-07-09T16:32:08;3.42;;;2.30;;
72427;SDS011;60419;48.880;18.036;2023-07-09T16:34:54;4.03;;;2.60;;
72427;SDS011;60419;48.880;18.036;2023-07-09T16:37:39;4.53;;;2.30;;
72427;SDS011;60419;48.880;18.036;2023-07-09T16:40:27;3.72;;;2.40;;
72427;SDS011;60419;48.880;18.036;2023-07-09T16:43:15;4.03;;;2.00;;
72427;SDS011;60419;48.880;18.036;2023-07-09T16:46:03;3.58;;;2.30;;
72427;SDS011;60419;48.880;18.036;2023-07-09T16:49:10;4.68;;;2.25;;
72427;SDS011;60419;48.880;18.036;2023-07-09T16:52:17;4.00;;;2.40;;
72427;SDS011;60419;48.880;18.036;2023-07-09T16:55:06;4.03;;;2.17;;
72427;SDS011;60419;48.880;18.036;2023-07-09T16:57:54;4.07;;;2.50;;
72427;SDS011;60419;48.880;18.036;2023-07-09T17:00:42;4.40;;;2.28;;
72427;SDS011;60419;48.880;18.036;2023-07-09T17:03:28;3.88;;;2.70;;
72427;SDS011;60419;48.880;18.036;2023-07-09T17:06:14;5.53;;;2.63;;
72427;SDS011;60419;48.880;18.036;2023-07-09T17:08:59;4.05;;;2.50;;
72427;SDS011;60419;48.880;18.036;2023-07-09T17:11:51;3.50;;;2.20;;
72427;SDS011;60419;48.880;18.036;2023-07-09T17:14:41;4.50;;;2.50;;
72427;SDS011;60419;48.880;18.036;2023-07-09T17:17:26;4.50;;;2.50;;
72427;SDS011;60419;48.880;18.036;2023-07-09T17:20:13;4.35;;;2.58;;
72427;SDS011;60419;48.880;18.036;2023-07-09T17:22:59;4.60;;;2.33;;
72427;SDS011;60419;48.880;18.036;2023-07-09T17:25:44;4.13;;;2.35;;